Time;durP1;ratioP1;P1;durP2;ratioP2;P2;SDS_P1;SDS_P2;PMS_P1;PMS_P2;Temp;Humidity;BMP_temperature;BMP_pressure;BME280_temperature;BME280_humidity;BME280_pressure;Samples;Min_cycle;Max_cycle;Signal;HPM_P1;HPM_P2
2023/12/19 00:01:05;;;;;;;3.38;2.58;;;;;;;;;;5038581;28;20083;-62
2023/12/19 00:03:34;;;;;;;5.53;2.95;;;;;;;;;;5038558;28;20444;-60
2023/12/19 00:06:02;;;;;;;3.40;2.45;;;;;;;;;;5036328;28;20045;-60
2023/12/19 00:08:32;;;;;;;6.43;2.83;;;;;;;;;;5035712;28;20068;-63
2023/12/19 00:11:00;;;;;;;4.22;3.05;;;;;;;;;;5037011;28;20080;-60
2023/12/19 00:13:29;;;;;;;6.30;3.13;;;;;;;;;;5040746;28;20103;-61
2023/12/19 00:15:57;;;;;;;2.90;2.38;;;;;;;;;;5041518;28;20045;-60
2023/12/19 00:18:26;;;;;;;3.72;2.22;;;;;;;;;;5036189;28;20300;-60
2023/12/19 00:20:54;;;;;;;4.68;2.83;;;;;;;;;;5032606;28;20040;-61
2023/12/19 00:23:23;;;;;;;3.30;2.30;;;;;;;;;;5036851;28;20095;-60
2023/12/19 00:25:52;;;;;;;6.20;2.70;;;;;;;;;;5035498;28;20561;-60
2023/12/19 00:28:21;;;;;;;2.55;2.25;;;;;;;;;;5035387;28;20203;-60
2023/12/19 00:30:49;;;;;;;4.15;2.63;;;;;;;;;;5036520;28;20126;-61
2023/12/19 00:33:18;;;;;;;4.82;2.83;;;;;;;;;;5034261;28;20060;-60
2023/12/19 00:35:46;;;;;;;3.85;2.35;;;;;;;;;;5036925;28;20051;-60
2023/12/19 00:38:15;;;;;;;4.35;2.20;;;;;;;;;;5038685;28;20621;-60
2023/12/19 00:40:43;;;;;;;4.32;2.55;;;;;;;;;;5035737;28;20069;-60
2023/12/19 00:43:13;;;;;;;4.75;2.20;;;;;;;;;;5035613;28;20468;-62
2023/12/19 00:45:41;;;;;;;4.78;2.45;;;;;;;;;;5041265;28;20056;-60
2023/12/19 00:48:10;;;;;;;5.75;2.80;;;;;;;;;;5034436;28;20409;-61
2023/12/19 00:50:38;;;;;;;3.38;2.17;;;;;;;;;;5031067;28;20299;-65
2023/12/19 00:53:07;;;;;;;4.63;3.03;;;;;;;;;;5033855;28;20072;-64
2023/12/19 00:55:35;;;;;;;4.97;2.40;;;;;;;;;;5034539;28;20049;-63
2023/12/19 00:58:04;;;;;;;4.13;2.47;;;;;;;;;;5040687;28;20133;-60
2023/12/19 01:00:33;;;;;;;3.17;1.98;;;;;;;;;;5035577;28;20050;-60
2023/12/19 01:03:02;;;;;;;2.70;2.08;;;;;;;;;;5035985;28;20053;-61
2023/12/19 01:05:30;;;;;;;3.40;2.70;;;;;;;;;;5033909;28;20441;-64
2023/12/19 01:07:59;;;;;;;4.72;2.60;;;;;;;;;;5037164;28;20152;-62
2023/12/19 01:10:27;;;;;;;3.35;2.20;;;;;;;;;;5035233;28;20057;-59
2023/12/19 01:12:55;;;;;;;4.00;2.22;;;;;;;;;;5038262;28;20053;-60
2023/12/19 01:15:25;;;;;;;3.83;2.25;;;;;;;;;;5035114;28;20135;-61
2023/12/19 01:17:55;;;;;;;2.92;1.90;;;;;;;;;;5035343;28;20115;-64
2023/12/19 01:20:23;;;;;;;3.13;2.10;;;;;;;;;;5034647;28;20045;-60
2023/12/19 01:22:51;;;;;;;4.25;2.85;;;;;;;;;;5035763;28;20458;-60
2023/12/19 01:25:20;;;;;;;6.03;1.98;;;;;;;;;;5035346;28;20049;-59
2023/12/19 01:27:48;;;;;;;2.53;2.17;;;;;;;;;;5034374;28;20050;-61
2023/12/19 01:30:17;;;;;;;2.83;1.80;;;;;;;;;;5034477;28;20142;-59
2023/12/19 01:32:45;;;;;;;4.22;2.67;;;;;;;;;;5036148;28;20048;-60
2023/12/19 01:35:15;;;;;;;2.30;1.67;;;;;;;;;;5038887;28;20080;-62
2023/12/19 01:37:44;;;;;;;2.15;1.95;;;;;;;;;;5038002;28;20077;-60
2023/12/19 01:40:12;;;;;;;2.55;1.85;;;;;;;;;;5041291;28;20056;-63
2023/12/19 01:42:41;;;;;;;1.83;1.60;;;;;;;;;;5040739;28;20089;-60
2023/12/19 01:45:10;;;;;;;3.17;2.22;;;;;;;;;;5041277;28;20049;-59
2023/12/19 01:47:40;;;;;;;3.08;2.42;;;;;;;;;;5041873;28;20099;-63
2023/12/19 01:50:09;;;;;;;2.42;1.92;;;;;;;;;;5037532;28;20055;-59
2023/12/19 01:52:40;;;;;;;3.83;1.95;;;;;;;;;;5043394;28;20387;-61
2023/12/19 01:55:09;;;;;;;2.55;1.80;;;;;;;;;;5041626;28;20116;-62
2023/12/19 01:57:38;;;;;;;2.85;2.20;;;;;;;;;;5037240;28;20496;-61
2023/12/19 02:00:07;;;;;;;6.38;2.33;;;;;;;;;;5039160;28;20067;-59
2023/12/19 02:02:35;;;;;;;3.35;2.03;;;;;;;;;;5038412;28;20123;-61
2023/12/19 02:05:04;;;;;;;3.58;2.33;;;;;;;;;;5043128;28;20495;-60
2023/12/19 02:07:32;;;;;;;3.92;2.22;;;;;;;;;;5037369;28;20049;-65
2023/12/19 02:10:03;;;;;;;6.07;2.20;;;;;;;;;;5037837;28;20130;-63
2023/12/19 02:12:31;;;;;;;4.63;2.35;;;;;;;;;;5040913;28;20139;-59
2023/12/19 02:15:00;;;;;;;4.07;2.15;;;;;;;;;;5042170;28;20055;-59
2023/12/19 02:17:28;;;;;;;3.78;1.98;;;;;;;;;;5037893;28;20057;-60
2023/12/19 02:19:56;;;;;;;2.75;2.35;;;;;;;;;;5039705;28;20482;-61
2023/12/19 02:22:25;;;;;;;2.60;1.92;;;;;;;;;;5039918;28;20041;-61
2023/12/19 02:24:55;;;;;;;3.40;1.88;;;;;;;;;;5043257;28;20391;-59
2023/12/19 02:27:24;;;;;;;2.28;1.73;;;;;;;;;;5036425;28;20156;-60
2023/12/19 02:29:53;;;;;;;4.53;2.30;;;;;;;;;;5036111;28;20047;-60
2023/12/19 02:32:21;;;;;;;2.17;1.98;;;;;;;;;;5039126;28;20469;-60
2023/12/19 02:34:49;;;;;;;3.60;2.17;;;;;;;;;;5040064;28;20490;-60
2023/12/19 02:37:18;;;;;;;2.13;1.92;;;;;;;;;;5040598;28;20044;-59
2023/12/19 02:39:46;;;;;;;3.13;2.10;;;;;;;;;;5040326;28;20119;-60
2023/12/19 02:42:16;;;;;;;2.38;1.98;;;;;;;;;;5037399;28;20488;-60
2023/12/19 02:44:44;;;;;;;1.65;1.52;;;;;;;;;;5038223;28;20545;-63
2023/12/19 02:47:13;;;;;;;2.10;1.85;;;;;;;;;;5036957;28;20114;-61
2023/12/19 02:49:41;;;;;;;2.00;1.80;;;;;;;;;;5053308;22;20435;-84
2023/12/19 02:52:10;;;;;;;2.47;2.00;;;;;;;;;;5013834;28;20050;-84
2023/12/19 02:54:38;;;;;;;3.00;1.90;;;;;;;;;;5016366;28;20128;-84
2023/12/19 02:57:06;;;;;;;5.55;1.90;;;;;;;;;;5030129;22;20530;-88
2023/12/19 02:59:36;;;;;;;2.58;1.98;;;;;;;;;;4999566;28;20046;-89
2023/12/19 03:02:05;;;;;;;2.25;1.90;;;;;;;;;;5001020;28;20358;-86
2023/12/19 03:04:33;;;;;;;2.70;1.70;;;;;;;;;;5000634;28;20502;-86
2023/12/19 03:07:02;;;;;;;2.45;1.65;;;;;;;;;;5003663;28;20057;-87
2023/12/19 03:09:31;;;;;;;2.35;1.67;;;;;;;;;;5005031;28;20053;-87
2023/12/19 03:12:00;;;;;;;2.70;2.10;;;;;;;;;;5002974;28;20049;-88
2023/12/19 03:14:28;;;;;;;2.25;1.88;;;;;;;;;;5000286;28;20457;-87
2023/12/19 03:16:58;;;;;;;4.00;2.10;;;;;;;;;;5005130;28;20116;-86
2023/12/19 03:19:26;;;;;;;2.97;1.80;;;;;;;;;;5002986;28;20132;-88
2023/12/19 03:21:55;;;;;;;2.85;1.92;;;;;;;;;;5001288;28;20046;-89
2023/12/19 03:24:24;;;;;;;2.30;1.63;;;;;;;;;;4999809;28;20046;-89
2023/12/19 03:26:52;;;;;;;2.92;2.05;;;;;;;;;;5003271;28;20128;-87
2023/12/19 03:29:20;;;;;;;3.50;2.22;;;;;;;;;;4999957;28;20107;-86
2023/12/19 03:31:49;;;;;;;3.50;2.10;;;;;;;;;;5000428;28;20556;-87
2023/12/19 03:34:19;;;;;;;2.92;1.90;;;;;;;;;;5006009;28;20046;-87
2023/12/19 03:36:47;;;;;;;4.03;2.20;;;;;;;;;;5000402;28;20064;-87
2023/12/19 03:39:16;;;;;;;2.78;2.00;;;;;;;;;;4999951;28;20073;-87
2023/12/19 03:41:44;;;;;;;4.03;2.17;;;;;;;;;;5001562;28;20453;-86
2023/12/19 03:44:33;;;;;;;3.60;2.05;;;;;;;;;;5003153;28;20049;-87
2023/12/19 03:47:01;;;;;;;3.97;1.92;;;;;;;;;;4998166;28;20082;-87
2023/12/19 03:49:31;;;;;;;2.55;1.83;;;;;;;;;;5001026;28;20054;-88
2023/12/19 03:51:59;;;;;;;4.80;2.25;;;;;;;;;;4999789;28;20046;-87
2023/12/19 03:54:29;;;;;;;3.35;2.10;;;;;;;;;;5001594;28;20499;-88
2023/12/19 03:56:58;;;;;;;4.25;1.98;;;;;;;;;;4995390;28;20058;-88
2023/12/19 03:59:26;;;;;;;3.38;2.15;;;;;;;;;;4997169;28;20470;-88
2023/12/19 04:01:56;;;;;;;3.08;2.45;;;;;;;;;;4992869;28;20096;-87
2023/12/19 04:04:25;;;;;;;3.38;1.95;;;;;;;;;;4994779;28;20054;-86
2023/12/19 04:06:54;;;;;;;2.30;1.70;;;;;;;;;;4995632;28;20053;-87
2023/12/19 04:09:23;;;;;;;3.72;2.25;;;;;;;;;;4995355;28;20058;-89
2023/12/19 04:11:52;;;;;;;1.95;1.85;;;;;;;;;;4997715;28;20133;-87
2023/12/19 04:14:19;;;;;;;3.03;1.85;;;;;;;;;;4990513;28;20639;-87
2023/12/19 04:16:47;;;;;;;2.35;2.08;;;;;;;;;;4997906;28;20096;-86
2023/12/19 04:19:16;;;;;;;3.97;2.00;;;;;;;;;;4996299;28;20050;-87
2023/12/19 04:21:45;;;;;;;2.88;1.70;;;;;;;;;;4996944;28;20050;-88
2023/12/19 04:24:14;;;;;;;2.67;1.83;;;;;;;;;;4992973;28;20405;-87
2023/12/19 04:26:43;;;;;;;3.38;1.85;;;;;;;;;;4999006;28;20054;-90
2023/12/19 04:29:11;;;;;;;4.10;2.05;;;;;;;;;;4991133;28;20050;-86
2023/12/19 04:31:40;;;;;;;3.13;2.28;;;;;;;;;;4990921;28;20047;-86
2023/12/19 04:34:09;;;;;;;3.28;1.92;;;;;;;;;;4995250;28;20132;-88
2023/12/19 04:36:38;;;;;;;2.88;2.35;;;;;;;;;;4995652;28;20053;-90
2023/12/19 04:39:06;;;;;;;3.22;2.15;;;;;;;;;;4994276;28;20049;-87
2023/12/19 04:41:37;;;;;;;2.50;1.73;;;;;;;;;;4991814;28;20078;-86
2023/12/19 04:44:06;;;;;;;3.17;2.40;;;;;;;;;;4989250;28;20574;-88
2023/12/19 04:46:34;;;;;;;2.20;1.90;;;;;;;;;;4993584;28;20497;-86
2023/12/19 04:49:02;;;;;;;2.58;1.88;;;;;;;;;;4991131;28;20112;-89
2023/12/19 04:51:31;;;;;;;2.30;1.70;;;;;;;;;;4993507;28;20050;-89
2023/12/19 04:54:02;;;;;;;3.13;1.83;;;;;;;;;;4992226;28;20054;-87
2023/12/19 04:56:30;;;;;;;3.65;1.63;;;;;;;;;;4995341;28;20057;-86
2023/12/19 04:59:00;;;;;;;2.30;2.10;;;;;;;;;;4987569;28;20058;-88
2023/12/19 05:01:29;;;;;;;3.25;2.13;;;;;;;;;;4987930;28;20104;-86
2023/12/19 05:03:57;;;;;;;5.03;2.05;;;;;;;;;;4995414;28;20121;-87
2023/12/19 05:06:25;;;;;;;4.15;2.10;;;;;;;;;;4999857;28;20065;-86
2023/12/19 05:08:54;;;;;;;8.15;2.35;;;;;;;;;;4993755;28;20051;-86
2023/12/19 05:11:22;;;;;;;3.83;2.30;;;;;;;;;;4993579;28;20720;-87
2023/12/19 05:13:51;;;;;;;3.30;1.80;;;;;;;;;;4989424;28;20069;-88
2023/12/19 05:16:20;;;;;;;4.22;2.45;;;;;;;;;;4992553;28;20046;-88
2023/12/19 05:18:49;;;;;;;3.78;2.50;;;;;;;;;;4990666;28;20477;-88
2023/12/19 05:21:20;;;;;;;3.28;1.92;;;;;;;;;;4990663;28;20125;-86
2023/12/19 05:23:49;;;;;;;3.53;1.98;;;;;;;;;;4989435;28;20057;-87
2023/12/19 05:26:18;;;;;;;1.75;1.58;;;;;;;;;;4992561;28;20042;-86
2023/12/19 05:28:46;;;;;;;3.47;2.15;;;;;;;;;;4972849;28;20176;-88
2023/12/19 05:31:16;;;;;;;3.03;1.70;;;;;;;;;;4971326;28;20051;-89
2023/12/19 05:33:46;;;;;;;2.97;1.70;;;;;;;;;;4978092;28;20569;-91
2023/12/19 05:36:15;;;;;;;1.88;1.67;;;;;;;;;;4974841;28;20043;-88
2023/12/19 05:38:44;;;;;;;2.97;1.80;;;;;;;;;;4976577;28;20043;-90
2023/12/19 05:41:14;;;;;;;1.92;1.73;;;;;;;;;;4973948;28;20139;-87
2023/12/19 05:43:43;;;;;;;2.78;1.80;;;;;;;;;;4978353;28;20078;-87
2023/12/19 05:46:13;;;;;;;3.10;1.80;;;;;;;;;;4971441;28;20047;-86
2023/12/19 05:48:42;;;;;;;2.83;1.80;;;;;;;;;;5006599;28;20050;-87
2023/12/19 05:51:12;;;;;;;4.05;1.80;;;;;;;;;;4991675;28;20050;-87
2023/12/19 05:53:41;;;;;;;2.47;1.73;;;;;;;;;;4992393;28;20458;-86
2023/12/19 05:56:13;;;;;;;3.90;2.00;;;;;;;;;;5016483;23;20100;-85
2023/12/19 05:58:44;;;;;;;2.60;1.90;;;;;;;;;;5029627;28;20053;-82
2023/12/19 06:01:13;;;;;;;3.78;1.77;;;;;;;;;;5036520;28;20049;-83
2023/12/19 06:03:41;;;;;;;2.67;1.80;;;;;;;;;;5036738;28;20049;-82
2023/12/19 06:06:14;;;;;;;2.38;1.67;;;;;;;;;;5034576;28;20051;-82
2023/12/19 06:08:43;;;;;;;2.45;1.70;;;;;;;;;;5000205;28;20061;-82
2023/12/19 06:11:11;;;;;;;2.17;1.60;;;;;;;;;;5039999;28;20041;-82
2023/12/19 06:13:40;;;;;;;3.17;2.05;;;;;;;;;;5038996;28;20188;-82
2023/12/19 06:16:09;;;;;;;2.00;1.60;;;;;;;;;;5039632;28;20052;-83
2023/12/19 06:18:37;;;;;;;3.10;1.75;;;;;;;;;;5039828;28;20053;-83
2023/12/19 06:21:06;;;;;;;1.92;1.67;;;;;;;;;;5040532;28;20048;-83
2023/12/19 06:23:36;;;;;;;2.65;1.80;;;;;;;;;;5029623;28;20057;-82
2023/12/19 06:26:06;;;;;;;2.88;2.08;;;;;;;;;;5023918;28;20107;-82
2023/12/19 06:28:34;;;;;;;4.15;1.98;;;;;;;;;;5020138;28;20466;-82
2023/12/19 06:31:03;;;;;;;3.20;2.13;;;;;;;;;;5020835;28;20041;-82
2023/12/19 06:33:31;;;;;;;3.67;2.13;;;;;;;;;;5020328;28;20056;-82
2023/12/19 06:36:00;;;;;;;3.22;2.05;;;;;;;;;;5021412;28;20049;-82
2023/12/19 06:38:28;;;;;;;2.35;1.67;;;;;;;;;;5022197;28;20132;-81
2023/12/19 06:40:58;;;;;;;3.17;2.00;;;;;;;;;;5021997;28;20103;-85
2023/12/19 06:43:27;;;;;;;3.42;2.42;;;;;;;;;;5022462;28;20045;-85
2023/12/19 06:45:55;;;;;;;3.85;2.35;;;;;;;;;;5024305;28;20053;-85
2023/12/19 06:48:24;;;;;;;3.53;1.88;;;;;;;;;;5021207;28;20037;-85
2023/12/19 06:50:52;;;;;;;5.72;2.08;;;;;;;;;;5020951;28;20049;-85
2023/12/19 06:53:21;;;;;;;3.42;1.83;;;;;;;;;;5018311;28;20466;-85
2023/12/19 06:55:49;;;;;;;2.67;1.80;;;;;;;;;;5018524;28;20062;-85
2023/12/19 06:58:19;;;;;;;6.07;1.95;;;;;;;;;;5021892;28;20053;-85
2023/12/19 07:00:47;;;;;;;4.57;2.28;;;;;;;;;;5022562;28;20077;-85
2023/12/19 07:03:18;;;;;;;2.42;1.60;;;;;;;;;;5020916;28;20049;-85
2023/12/19 07:05:46;;;;;;;2.67;1.98;;;;;;;;;;5021557;28;20094;-85
2023/12/19 07:08:15;;;;;;;3.13;2.58;;;;;;;;;;5022713;28;20076;-85
2023/12/19 07:10:43;;;;;;;3.45;1.98;;;;;;;;;;5020225;28;20073;-85
2023/12/19 07:13:11;;;;;;;1.98;1.45;;;;;;;;;;5022831;28;20132;-85
2023/12/19 07:15:41;;;;;;;1.88;1.42;;;;;;;;;;5020640;28;20041;-86
2023/12/19 07:18:11;;;;;;;2.38;1.45;;;;;;;;;;5020202;28;20053;-85
2023/12/19 07:20:39;;;;;;;2.05;1.60;;;;;;;;;;5021488;28;20079;-85
2023/12/19 07:23:08;;;;;;;2.63;1.55;;;;;;;;;;5023364;28;20453;-85
2023/12/19 07:25:36;;;;;;;2.25;1.33;;;;;;;;;;5021616;28;20100;-85
2023/12/19 07:28:05;;;;;;;3.03;1.67;;;;;;;;;;5017503;28;20064;-86
2023/12/19 07:30:34;;;;;;;4.82;2.00;;;;;;;;;;5020237;28;20140;-85
2023/12/19 07:33:04;;;;;;;2.08;1.50;;;;;;;;;;5019704;28;20127;-85
2023/12/19 07:35:33;;;;;;;1.15;1.02;;;;;;;;;;5023387;28;20569;-85
2023/12/19 07:38:01;;;;;;;2.63;1.23;;;;;;;;;;5022685;28;20037;-86
2023/12/19 07:40:31;;;;;;;2.45;1.63;;;;;;;;;;5018034;28;20042;-86
2023/12/19 07:42:59;;;;;;;1.92;1.40;;;;;;;;;;5021503;28;20045;-86
2023/12/19 07:45:28;;;;;;;3.05;1.70;;;;;;;;;;5017137;28;20063;-86
2023/12/19 07:47:56;;;;;;;2.55;1.30;;;;;;;;;;5020340;28;20053;-87
2023/12/19 07:50:27;;;;;;;3.08;1.52;;;;;;;;;;5016723;28;20145;-84
2023/12/19 07:52:55;;;;;;;3.67;1.52;;;;;;;;;;5018008;28;20111;-91
2023/12/19 07:55:24;;;;;;;4.65;1.70;;;;;;;;;;5021693;28;20045;-88
2023/12/19 07:57:52;;;;;;;2.75;1.40;;;;;;;;;;5020496;28;20050;-90
2023/12/19 08:00:21;;;;;;;2.92;1.52;;;;;;;;;;5018923;28;20140;-87
2023/12/19 08:02:52;;;;;;;3.33;1.38;;;;;;;;;;5020671;28;20092;-89
2023/12/19 08:05:21;;;;;;;1.65;1.35;;;;;;;;;;5020929;28;20042;-88
2023/12/19 08:07:51;;;;;;;1.75;1.17;;;;;;;;;;5019565;28;20136;-87
2023/12/19 08:10:19;;;;;;;3.67;1.38;;;;;;;;;;5021885;28;20498;-88
2023/12/19 08:12:48;;;;;;;1.67;1.38;;;;;;;;;;5021890;28;20414;-87
2023/12/19 08:15:17;;;;;;;1.77;1.27;;;;;;;;;;5022648;28;20406;-87
2023/12/19 08:17:45;;;;;;;1.92;1.58;;;;;;;;;;5020890;28;20045;-87
2023/12/19 08:20:15;;;;;;;1.40;1.30;;;;;;;;;;5019763;28;20046;-87
2023/12/19 08:22:45;;;;;;;1.67;1.38;;;;;;;;;;5017967;28;20417;-87
2023/12/19 08:25:15;;;;;;;4.88;1.38;;;;;;;;;;5015330;28;20509;-88
2023/12/19 08:27:44;;;;;;;2.45;1.27;;;;;;;;;;5020283;28;20111;-87
2023/12/19 08:30:13;;;;;;;3.15;1.52;;;;;;;;;;5021538;28;20060;-87
2023/12/19 08:32:41;;;;;;;1.45;1.35;;;;;;;;;;5020957;28;20123;-87
2023/12/19 08:35:10;;;;;;;1.48;1.38;;;;;;;;;;5020859;28;20425;-87
2023/12/19 08:37:39;;;;;;;3.53;1.52;;;;;;;;;;5021194;28;20507;-86
2023/12/19 08:40:08;;;;;;;1.90;1.10;;;;;;;;;;5019275;28;20049;-86
2023/12/19 08:42:38;;;;;;;1.40;1.27;;;;;;;;;;5018398;28;20489;-85
2023/12/19 08:45:07;;;;;;;2.47;1.30;;;;;;;;;;5021498;28;20056;-86
2023/12/19 08:47:35;;;;;;;2.05;1.20;;;;;;;;;;5019808;28;20052;-86
2023/12/19 08:50:07;;;;;;;2.35;1.48;;;;;;;;;;5022914;28;20049;-85
2023/12/19 08:52:38;;;;;;;1.60;1.38;;;;;;;;;;5018308;28;20053;-85
2023/12/19 08:55:07;;;;;;;2.85;1.50;;;;;;;;;;5018334;28;20081;-85
2023/12/19 08:57:40;;;;;;;1.77;1.17;;;;;;;;;;5019940;28;20383;-85
2023/12/19 09:00:12;;;;;;;1.63;1.30;;;;;;;;;;5016279;28;20508;-85
2023/12/19 09:02:42;;;;;;;1.25;1.15;;;;;;;;;;5018979;28;20129;-85
2023/12/19 09:05:12;;;;;;;2.45;1.40;;;;;;;;;;5022012;28;20049;-86
2023/12/19 09:07:40;;;;;;;1.35;1.02;;;;;;;;;;5017329;28;20409;-88
2023/12/19 09:10:10;;;;;;;2.42;1.02;;;;;;;;;;5019553;28;20080;-87
2023/12/19 09:12:40;;;;;;;1.23;1.13;;;;;;;;;;5018230;28;20064;-87
2023/12/19 09:15:10;;;;;;;4.43;1.38;;;;;;;;;;5020294;28;20057;-86
2023/12/19 09:17:39;;;;;;;2.97;1.50;;;;;;;;;;5016598;28;20128;-87
2023/12/19 09:20:10;;;;;;;1.95;1.48;;;;;;;;;;5018165;28;20064;-87
2023/12/19 09:22:38;;;;;;;7.47;1.63;;;;;;;;;;5018298;28;20061;-88
2023/12/19 09:25:13;;;;;;;1.92;1.33;;;;;;;;;;5018848;28;20042;-87
2023/12/19 09:27:45;;;;;;;1.40;1.30;;;;;;;;;;5019795;28;20061;-86
2023/12/19 09:30:15;;;;;;;2.97;1.40;;;;;;;;;;5020818;28;20048;-87
2023/12/19 09:32:44;;;;;;;1.50;1.20;;;;;;;;;;5020255;28;20402;-87
2023/12/19 09:35:14;;;;;;;1.55;1.23;;;;;;;;;;5018089;28;20353;-87
2023/12/19 09:37:44;;;;;;;1.80;1.35;;;;;;;;;;5015785;28;20049;-87
2023/12/19 09:40:15;;;;;;;2.72;1.50;;;;;;;;;;5021531;28;20501;-86
2023/12/19 09:42:45;;;;;;;1.75;1.23;;;;;;;;;;5019509;28;20076;-87
2023/12/19 09:45:14;;;;;;;1.50;1.23;;;;;;;;;;5021378;28;20042;-87
2023/12/19 09:47:48;;;;;;;5.78;1.90;;;;;;;;;;5020671;28;20501;-86
2023/12/19 09:50:17;;;;;;;3.97;1.60;;;;;;;;;;5017449;28;20405;-87
2023/12/19 09:52:47;;;;;;;3.55;1.60;;;;;;;;;;5014487;28;20046;-87
2023/12/19 09:55:17;;;;;;;2.40;1.50;;;;;;;;;;5021631;28;20081;-88
2023/12/19 09:57:47;;;;;;;2.65;1.50;;;;;;;;;;5022346;28;20056;-88
2023/12/19 10:00:18;;;;;;;1.92;1.35;;;;;;;;;;5022857;28;20166;-87
2023/12/19 10:02:46;;;;;;;3.83;1.58;;;;;;;;;;5020741;28;20054;-86
2023/12/19 10:05:15;;;;;;;2.00;1.40;;;;;;;;;;5021220;28;20038;-88
2023/12/19 10:07:43;;;;;;;2.30;1.60;;;;;;;;;;5020141;28;20068;-87
2023/12/19 10:10:12;;;;;;;7.78;1.50;;;;;;;;;;5024207;28;20383;-92
2023/12/19 10:12:52;;;;;;;3.97;1.63;;;;;;;;;;5023744;28;20490;-88
2023/12/19 10:15:26;;;;;;;6.50;1.50;;;;;;;;;;5022928;28;20069;-88
2023/12/19 10:18:05;;;;;;;4.28;1.30;;;;;;;;;;5019860;28;20064;-90
2023/12/19 10:20:34;;;;;;;6.10;1.30;;;;;;;;;;5022192;28;20061;-90
2023/12/19 10:23:06;;;;;;;4.38;1.23;;;;;;;;;;5022583;28;20077;-89
2023/12/19 10:25:35;;;;;;;4.10;1.10;;;;;;;;;;5024063;28;20060;-89
2023/12/19 10:28:15;;;;;;;1.05;0.93;;;;;;;;;;5021556;28;20533;-94
2023/12/19 10:30:43;;;;;;;2.25;1.25;;;;;;;;;;5017367;28;20103;-90
2023/12/19 10:33:14;;;;;;;1.60;1.23;;;;;;;;;;5022376;28;20060;-94
2023/12/19 10:35:44;;;;;;;2.92;1.20;;;;;;;;;;5022170;28;20085;-91
2023/12/19 10:38:13;;;;;;;1.10;0.88;;;;;;;;;;5022324;28;20042;-90
2023/12/19 10:40:42;;;;;;;2.28;1.25;;;;;;;;;;5019211;28;20046;-89
2023/12/19 10:43:10;;;;;;;4.35;1.40;;;;;;;;;;5020304;28;20054;-91
2023/12/19 10:45:40;;;;;;;3.10;1.25;;;;;;;;;;5020623;28;20053;-90
2023/12/19 10:48:09;;;;;;;3.25;1.00;;;;;;;;;;5019661;28;20074;-90
2023/12/19 10:50:37;;;;;;;3.03;1.30;;;;;;;;;;5022666;28;20870;-92
2023/12/19 10:53:08;;;;;;;3.05;1.05;;;;;;;;;;5020162;28;20057;-90
2023/12/19 10:55:40;;;;;;;2.78;1.00;;;;;;;;;;5020589;28;20685;-90
2023/12/19 10:58:09;;;;;;;5.57;0.95;;;;;;;;;;5021968;28;20053;-90
2023/12/19 11:00:39;;;;;;;5.75;1.63;;;;;;;;;;5017262;28;20054;-90
2023/12/19 11:03:14;;;;;;;3.17;1.10;;;;;;;;;;5022664;28;20080;-91
2023/12/19 11:05:45;;;;;;;5.05;1.10;;;;;;;;;;5019664;28;20490;-90
2023/12/19 11:08:15;;;;;;;2.53;1.20;;;;;;;;;;5022157;28;20327;-90
2023/12/19 11:10:47;;;;;;;4.15;1.35;;;;;;;;;;5022845;28;20521;-90
2023/12/19 11:13:16;;;;;;;2.05;1.02;;;;;;;;;;5019439;28;20395;-90
2023/12/19 11:15:46;;;;;;;4.88;1.17;;;;;;;;;;5018503;28;20050;-91
2023/12/19 11:18:20;;;;;;;2.47;0.93;;;;;;;;;;5021168;28;20501;-91
2023/12/19 11:20:51;;;;;;;1.42;0.90;;;;;;;;;;5020695;28;20053;-94
2023/12/19 11:23:27;;;;;;;3.75;0.82;;;;;;;;;;5023857;28;20069;-90
2023/12/19 11:25:57;;;;;;;0.98;0.82;;;;;;;;;;5022829;28;20534;-90
2023/12/19 11:28:26;;;;;;;0.75;0.63;;;;;;;;;;5020586;28;20502;-92
2023/12/19 11:30:54;;;;;;;4.25;0.73;;;;;;;;;;5019065;28;20096;-90
2023/12/19 11:33:31;;;;;;;0.55;0.55;;;;;;;;;;5018793;28;20338;-91
2023/12/19 11:36:11;;;;;;;1.70;0.90;;;;;;;;;;5021871;28;20069;-91
2023/12/19 11:38:40;;;;;;;2.55;0.90;;;;;;;;;;5016957;28;20485;-91
2023/12/19 11:41:08;;;;;;;1.50;0.75;;;;;;;;;;5021101;28;20124;-90
2023/12/19 11:43:55;;;;;;;0.77;0.55;;;;;;;;;;5017732;28;20512;-90
2023/12/19 11:46:26;;;;;;;1.92;0.82;;;;;;;;;;5017280;28;20494;-90
2023/12/19 11:48:58;;;;;;;0.82;0.50;;;;;;;;;;5021829;28;20072;-88
2023/12/19 11:51:46;;;;;;;3.55;0.90;;;;;;;;;;5022077;28;20041;-89
2023/12/19 11:54:15;;;;;;;1.02;0.60;;;;;;;;;;5021413;28;20068;-89
2023/12/19 11:56:44;;;;;;;1.00;0.63;;;;;;;;;;5024445;28;20088;-88
2023/12/19 11:59:14;;;;;;;0.95;0.60;;;;;;;;;;5021220;28;21358;-88
2023/12/19 12:01:44;;;;;;;3.25;0.65;;;;;;;;;;5018996;28;20095;-89
2023/12/19 12:04:14;;;;;;;2.45;0.60;;;;;;;;;;5022697;28;20124;-90
2023/12/19 12:06:43;;;;;;;1.90;0.85;;;;;;;;;;5023963;28;20056;-89
2023/12/19 12:09:12;;;;;;;1.58;0.60;;;;;;;;;;5021057;28;20054;-90
2023/12/19 12:11:47;;;;;;;0.43;0.40;;;;;;;;;;5023673;28;20061;-90
2023/12/19 12:14:16;;;;;;;0.70;0.50;;;;;;;;;;5023100;28;20064;-89
2023/12/19 12:16:45;;;;;;;3.20;0.80;;;;;;;;;;5014297;28;20664;-90
2023/12/19 12:19:15;;;;;;;2.70;0.70;;;;;;;;;;5016744;28;20044;-89
2023/12/19 12:21:46;;;;;;;6.00;0.70;;;;;;;;;;5019270;28;20852;-87
2023/12/19 12:24:23;;;;;;;0.90;0.60;;;;;;;;;;5016495;28;20132;-90
2023/12/19 12:27:10;;;;;;;1.13;0.65;;;;;;;;;;5019816;28;20152;-91
2023/12/19 12:29:40;;;;;;;2.05;0.50;;;;;;;;;;5017548;28;20048;-90
2023/12/19 12:32:09;;;;;;;0.55;0.50;;;;;;;;;;5018297;28;20057;-90
2023/12/19 12:34:39;;;;;;;4.78;0.77;;;;;;;;;;5019445;28;20457;-90
2023/12/19 12:37:07;;;;;;;1.95;0.70;;;;;;;;;;5022120;28;20128;-90
2023/12/19 12:39:36;;;;;;;4.20;0.80;;;;;;;;;;5018611;28;20144;-90
2023/12/19 12:42:05;;;;;;;2.03;0.80;;;;;;;;;;5018630;28;20060;-92
2023/12/19 12:44:33;;;;;;;1.70;0.60;;;;;;;;;;5022513;28;20095;-88
2023/12/19 12:47:03;;;;;;;1.50;0.80;;;;;;;;;;5021007;28;20045;-89
2023/12/19 12:49:33;;;;;;;3.30;0.68;;;;;;;;;;5020380;28;20041;-89
2023/12/19 12:52:04;;;;;;;1.13;0.63;;;;;;;;;;5019647;28;20080;-90
2023/12/19 12:54:33;;;;;;;5.55;0.60;;;;;;;;;;5021247;28;20061;-89
2023/12/19 12:57:01;;;;;;;1.88;0.43;;;;;;;;;;5022210;28;20049;-90
2023/12/19 12:59:30;;;;;;;0.82;0.50;;;;;;;;;;5020744;28;20053;-90
2023/12/19 13:01:59;;;;;;;1.17;0.65;;;;;;;;;;5018720;28;20045;-91
2023/12/19 13:04:27;;;;;;;0.65;0.57;;;;;;;;;;5016819;28;20053;-89
2023/12/19 13:06:56;;;;;;;0.93;0.77;;;;;;;;;;5019564;28;20144;-92
2023/12/19 13:09:28;;;;;;;1.90;0.77;;;;;;;;;;5022161;28;20053;-90
2023/12/19 13:11:58;;;;;;;0.90;0.60;;;;;;;;;;5018192;28;20115;-90
2023/12/19 13:14:26;;;;;;;1.15;0.50;;;;;;;;;;5018766;28;20507;-90
2023/12/19 13:16:55;;;;;;;1.30;0.47;;;;;;;;;;5019083;28;20053;-90
2023/12/19 13:19:23;;;;;;;0.77;0.60;;;;;;;;;;5021613;28;20052;-91
2023/12/19 13:21:52;;;;;;;1.35;0.60;;;;;;;;;;5017781;28;20563;-91
2023/12/19 13:24:22;;;;;;;0.50;0.50;;;;;;;;;;5020775;28;21195;-90
2023/12/19 13:26:51;;;;;;;3.50;0.60;;;;;;;;;;5020483;28;20041;-90
2023/12/19 13:29:20;;;;;;;2.45;0.60;;;;;;;;;;5017930;28;20272;-89
2023/12/19 13:31:49;;;;;;;1.17;0.68;;;;;;;;;;5026940;28;20076;-90
2023/12/19 13:34:17;;;;;;;3.33;0.77;;;;;;;;;;5026634;28;20060;-89
2023/12/19 13:36:46;;;;;;;0.80;0.70;;;;;;;;;;5021171;28;20567;-91
2023/12/19 13:39:20;;;;;;;1.70;0.70;;;;;;;;;;5025406;28;20072;-90
2023/12/19 13:41:51;;;;;;;3.97;0.80;;;;;;;;;;5026058;28;20096;-90
2023/12/19 13:44:21;;;;;;;1.30;0.63;;;;;;;;;;5019829;28;20057;-89
2023/12/19 13:46:50;;;;;;;1.05;0.60;;;;;;;;;;5018921;28;20497;-88
2023/12/19 13:49:19;;;;;;;4.40;0.70;;;;;;;;;;5022123;28;20045;-89
2023/12/19 13:51:49;;;;;;;0.95;0.60;;;;;;;;;;5024854;28;20085;-89
2023/12/19 13:54:20;;;;;;;1.55;0.60;;;;;;;;;;5023488;28;20046;-90
2023/12/19 13:56:49;;;;;;;3.55;0.70;;;;;;;;;;5023647;28;20050;-89
2023/12/19 13:59:19;;;;;;;0.70;0.50;;;;;;;;;;5021105;28;20104;-90
2023/12/19 14:01:49;;;;;;;2.03;0.80;;;;;;;;;;5017955;28;20049;-90
2023/12/19 14:04:21;;;;;;;1.70;0.77;;;;;;;;;;5022101;28;20137;-89
2023/12/19 14:06:49;;;;;;;1.10;0.70;;;;;;;;;;5023814;28;20045;-90
2023/12/19 14:09:19;;;;;;;1.98;0.60;;;;;;;;;;5022545;28;20071;-90
2023/12/19 14:11:48;;;;;;;8.20;0.93;;;;;;;;;;5024360;28;20095;-90
2023/12/19 14:14:19;;;;;;;0.70;0.70;;;;;;;;;;5021645;28;20065;-90
2023/12/19 14:16:47;;;;;;;1.55;0.80;;;;;;;;;;5020035;28;20053;-90
2023/12/19 14:19:17;;;;;;;1.83;0.80;;;;;;;;;;5019515;28;20151;-90
2023/12/19 14:21:46;;;;;;;4.88;1.00;;;;;;;;;;5020186;28;20074;-90
2023/12/19 14:24:14;;;;;;;2.92;0.77;;;;;;;;;;5023844;28;20053;-89
2023/12/19 14:26:45;;;;;;;1.27;0.93;;;;;;;;;;5015778;28;20289;-89
2023/12/19 14:29:13;;;;;;;3.03;0.80;;;;;;;;;;5020671;28;20414;-90
2023/12/19 14:31:45;;;;;;;1.90;0.82;;;;;;;;;;5020904;28;20037;-89
2023/12/19 14:34:15;;;;;;;1.52;0.70;;;;;;;;;;5018393;28;20049;-89
2023/12/19 14:36:46;;;;;;;2.05;0.82;;;;;;;;;;5018329;28;20088;-89
2023/12/19 14:39:15;;;;;;;1.05;0.77;;;;;;;;;;5018947;28;20146;-90
2023/12/19 14:41:45;;;;;;;2.08;0.82;;;;;;;;;;5017182;28;20042;-89
2023/12/19 14:44:13;;;;;;;0.82;0.68;;;;;;;;;;5019070;28;20488;-90
2023/12/19 14:46:42;;;;;;;2.13;0.90;;;;;;;;;;5020232;28;20061;-90
2023/12/19 14:49:10;;;;;;;2.67;0.80;;;;;;;;;;5020418;28;20045;-90
2023/12/19 14:51:42;;;;;;;0.80;0.65;;;;;;;;;;5021394;28;20581;-90
2023/12/19 14:54:11;;;;;;;1.23;0.82;;;;;;;;;;5016901;28;20089;-90
2023/12/19 14:56:40;;;;;;;4.05;0.68;;;;;;;;;;5019357;28;20116;-90